Time;durP1;ratioP1;P1;durP2;ratioP2;P2;SDS_P1;SDS_P2;PMS_P1;PMS_P2;Temp;Humidity;BMP_temperature;BMP_pressure;BME280_temperature;BME280_humidity;BME280_pressure;Samples;Min_cycle;Max_cycle;Signal;HPM_P1;HPM_P2
2023/11/06 00:01:40;;;;;;;4.43;1.13;;;7.50;99.90;;;;;;5115509;27;20027;-68
2023/11/06 00:04:06;;;;;;;3.05;1.02;;;7.50;99.90;;;;;;5114524;27;20361;-67
2023/11/06 00:06:31;;;;;;;3.55;0.80;;;7.60;99.90;;;;;;5114291;28;20361;-67
2023/11/06 00:08:57;;;;;;;3.85;0.80;;;7.60;99.90;;;;;;5113294;28;20064;-67
2023/11/06 00:11:23;;;;;;;4.10;1.05;;;7.70;99.90;;;;;;5113404;28;20024;-67
2023/11/06 00:13:48;;;;;;;4.22;1.15;;;7.80;99.90;;;;;;5112889;28;20387;-67
2023/11/06 00:16:14;;;;;;;6.65;0.98;;;7.80;99.90;;;;;;5115481;27;20043;-67
2023/11/06 00:18:41;;;;;;;4.55;1.00;;;7.90;99.90;;;;;;5111033;28;20112;-67
2023/11/06 00:21:10;;;;;;;3.08;0.93;;;7.90;99.90;;;;;;5113639;27;20106;-67
2023/11/06 00:23:36;;;;;;;3.60;0.98;;;7.80;99.90;;;;;;5111412;28;20031;-67
2023/11/06 00:26:03;;;;;;;5.35;0.88;;;7.80;99.90;;;;;;5112598;28;20038;-67
2023/11/06 00:28:28;;;;;;;4.05;0.77;;;7.80;99.90;;;;;;5113484;28;20070;-67
2023/11/06 00:30:54;;;;;;;2.42;0.80;;;7.80;99.90;;;;;;5108806;28;20043;-67
2023/11/06 00:33:20;;;;;;;4.40;1.00;;;7.80;99.90;;;;;;5112142;27;20465;-67
2023/11/06 00:35:46;;;;;;;2.95;0.93;;;7.80;99.90;;;;;;5093984;28;20026;-67
2023/11/06 00:38:12;;;;;;;2.63;0.85;;;7.80;99.90;;;;;;5108266;28;20441;-67
2023/11/06 00:40:38;;;;;;;8.32;1.42;;;7.80;99.90;;;;;;5099738;28;20023;-67
2023/11/06 00:43:03;;;;;;;5.50;1.15;;;7.70;99.90;;;;;;5106308;28;20027;-67
2023/11/06 00:45:29;;;;;;;6.22;0.93;;;7.60;99.90;;;;;;5114249;28;20015;-67
2023/11/06 00:47:55;;;;;;;2.97;1.05;;;7.60;99.90;;;;;;5112903;28;20031;-67
2023/11/06 00:50:20;;;;;;;1.88;0.70;;;7.60;99.90;;;;;;5106250;28;20031;-67
2023/11/06 00:52:46;;;;;;;5.38;1.05;;;7.60;99.90;;;;;;5107744;28;20020;-67
2023/11/06 00:55:12;;;;;;;8.75;1.35;;;7.60;99.90;;;;;;5111839;28;20016;-67
2023/11/06 00:57:37;;;;;;;2.38;0.80;;;7.70;99.90;;;;;;5108595;28;20511;-67
2023/11/06 01:00:04;;;;;;;3.10;1.15;;;7.80;99.90;;;;;;5111528;28;20023;-67
2023/11/06 01:02:30;;;;;;;4.47;0.80;;;7.80;99.90;;;;;;5108078;28;20024;-67
2023/11/06 01:04:56;;;;;;;3.83;1.00;;;7.80;99.90;;;;;;5111410;28;20031;-67
2023/11/06 01:07:22;;;;;;;4.00;1.00;;;7.80;99.90;;;;;;5113965;28;20054;-67
2023/11/06 01:09:47;;;;;;;4.57;0.75;;;7.80;99.90;;;;;;5109534;28;20362;-67
2023/11/06 01:12:13;;;;;;;4.93;1.13;;;7.70;99.90;;;;;;5106930;28;20488;-66
2023/11/06 01:14:38;;;;;;;4.07;0.80;;;7.70;99.90;;;;;;5109907;28;20031;-66
2023/11/06 01:17:04;;;;;;;2.60;0.60;;;7.70;99.90;;;;;;5126072;27;20043;-67
2023/11/06 01:19:29;;;;;;;5.38;1.13;;;7.60;99.90;;;;;;5127990;27;20108;-67
2023/11/06 01:21:55;;;;;;;2.47;0.68;;;7.60;99.90;;;;;;5125260;27;20047;-67
2023/11/06 01:24:21;;;;;;;4.55;0.95;;;7.70;99.90;;;;;;5133341;27;20019;-66
2023/11/06 01:26:46;;;;;;;8.27;1.08;;;7.80;99.90;;;;;;5133104;27;20020;-66
2023/11/06 01:29:12;;;;;;;4.80;1.10;;;7.80;99.90;;;;;;5116575;27;20288;-67
2023/11/06 01:31:38;;;;;;;4.93;1.08;;;7.70;99.90;;;;;;5132217;27;20015;-68
2023/11/06 01:34:04;;;;;;;6.80;1.15;;;7.80;99.90;;;;;;5132925;27;20084;-67
2023/11/06 01:36:30;;;;;;;10.90;1.45;;;7.80;99.90;;;;;;5133925;27;20101;-67
2023/11/06 01:38:56;;;;;;;2.50;0.60;;;7.90;99.90;;;;;;5131168;27;20900;-67
2023/11/06 01:41:21;;;;;;;4.60;1.02;;;8.00;99.90;;;;;;5133798;27;20034;-67
2023/11/06 01:43:47;;;;;;;5.07;1.02;;;8.00;99.90;;;;;;5132276;27;20062;-67
2023/11/06 01:46:13;;;;;;;4.72;0.90;;;8.00;99.90;;;;;;5127653;27;20050;-67
2023/11/06 01:48:41;;;;;;;6.45;0.90;;;8.00;99.90;;;;;;5125688;27;20034;-67
2023/11/06 01:51:08;;;;;;;4.35;0.90;;;8.00;99.90;;;;;;5133314;27;20364;-67
2023/11/06 01:53:35;;;;;;;3.78;0.80;;;8.10;99.90;;;;;;5133027;27;20019;-68
2023/11/06 01:56:01;;;;;;;4.13;0.65;;;8.10;99.90;;;;;;5114449;27;20839;-67
2023/11/06 01:58:28;;;;;;;3.50;0.80;;;8.10;99.90;;;;;;5128748;27;20113;-67
2023/11/06 02:00:54;;;;;;;2.20;0.73;;;8.20;99.90;;;;;;5125255;27;20031;-67
2023/11/06 02:03:21;;;;;;;5.13;0.82;;;8.10;99.90;;;;;;5131220;27;20035;-67
2023/11/06 02:05:47;;;;;;;1.70;0.70;;;8.10;99.90;;;;;;5132582;27;20026;-67
2023/11/06 02:08:15;;;;;;;6.53;0.95;;;8.10;99.90;;;;;;5127615;27;20383;-67
2023/11/06 02:10:43;;;;;;;5.68;0.80;;;8.10;99.90;;;;;;5124307;27;20023;-67
2023/11/06 02:13:08;;;;;;;4.43;1.13;;;8.20;99.90;;;;;;5132566;27;20452;-67
2023/11/06 02:15:34;;;;;;;3.67;0.70;;;8.20;99.90;;;;;;5132765;27;20030;-67
2023/11/06 02:17:59;;;;;;;3.55;0.68;;;8.20;99.90;;;;;;5119365;27;20630;-67
2023/11/06 02:20:25;;;;;;;3.25;0.60;;;8.30;99.90;;;;;;5124850;27;20023;-67
2023/11/06 02:22:59;;;;;;;4.07;1.05;;;8.30;99.90;;;;;;5131587;27;20019;-67
2023/11/06 02:25:25;;;;;;;4.53;0.60;;;8.40;99.90;;;;;;5133082;27;20023;-67
2023/11/06 02:27:50;;;;;;;1.90;0.80;;;8.40;99.90;;;;;;5121711;27;20473;-67
2023/11/06 02:30:16;;;;;;;5.78;0.60;;;8.40;99.90;;;;;;5132789;27;20026;-67
2023/11/06 02:32:41;;;;;;;4.90;0.80;;;8.30;99.90;;;;;;5128197;27;20027;-67
2023/11/06 02:35:07;;;;;;;3.28;0.73;;;8.20;99.90;;;;;;5129048;27;20019;-67
2023/11/06 02:37:33;;;;;;;3.10;0.90;;;8.20;99.90;;;;;;5126842;27;20035;-68
2023/11/06 02:39:58;;;;;;;1.65;0.60;;;8.20;99.90;;;;;;5130527;27;20109;-67
2023/11/06 02:42:24;;;;;;;5.97;1.30;;;8.10;99.90;;;;;;5131476;28;20032;-67
2023/11/06 02:44:49;;;;;;;3.20;0.55;;;8.10;99.90;;;;;;5131511;28;20019;-67
2023/11/06 02:47:15;;;;;;;2.92;0.70;;;8.10;99.90;;;;;;5132612;28;20050;-67
2023/11/06 02:49:41;;;;;;;2.90;0.80;;;8.10;99.90;;;;;;5131276;28;20121;-67
2023/11/06 02:52:06;;;;;;;3.25;0.85;;;8.10;99.90;;;;;;5125276;28;20095;-67
2023/11/06 02:54:32;;;;;;;3.08;0.68;;;8.10;99.90;;;;;;5131155;28;20440;-67
2023/11/06 02:56:57;;;;;;;2.45;0.68;;;8.10;99.90;;;;;;5131909;28;20677;-67
2023/11/06 02:59:23;;;;;;;3.00;0.65;;;8.10;99.90;;;;;;5129835;28;20027;-67
2023/11/06 03:01:49;;;;;;;1.75;0.43;;;8.10;99.90;;;;;;5126847;28;20019;-67
2023/11/06 03:04:15;;;;;;;2.42;0.70;;;8.10;99.90;;;;;;5131044;28;20034;-67
2023/11/06 03:06:41;;;;;;;4.95;0.60;;;8.10;99.90;;;;;;5132171;28;20019;-67
2023/11/06 03:09:09;;;;;;;3.03;0.60;;;8.00;99.90;;;;;;5131911;28;20023;-67
2023/11/06 03:11:35;;;;;;;3.15;0.93;;;7.90;99.90;;;;;;5132561;28;20020;-67
2023/11/06 03:14:00;;;;;;;6.97;0.75;;;7.80;99.90;;;;;;5130198;28;20127;-67
2023/11/06 03:16:27;;;;;;;4.82;0.98;;;7.80;99.90;;;;;;5132228;27;20070;-66
2023/11/06 03:18:52;;;;;;;9.95;2.03;;;7.80;99.90;;;;;;5123861;27;20475;-67
2023/11/06 03:21:19;;;;;;;6.22;0.70;;;7.80;99.90;;;;;;5135882;27;20015;-67
2023/11/06 03:23:45;;;;;;;1.98;1.15;;;7.90;99.90;;;;;;5134225;27;20019;-67
2023/11/06 03:26:11;;;;;;;1.70;0.60;;;7.80;99.90;;;;;;5136485;27;20375;-66
2023/11/06 03:28:39;;;;;;;2.58;0.80;;;7.80;99.90;;;;;;5135587;27;20027;-67
2023/11/06 03:31:04;;;;;;;3.80;0.70;;;7.80;99.90;;;;;;5133424;27;20026;-67
2023/11/06 03:33:30;;;;;;;9.63;1.30;;;7.80;99.90;;;;;;5128973;27;20027;-67
2023/11/06 03:35:55;;;;;;;4.75;0.75;;;7.70;99.90;;;;;;5128301;27;20370;-67
2023/11/06 03:38:21;;;;;;;4.93;0.73;;;7.70;99.90;;;;;;5135735;27;20038;-67
2023/11/06 03:40:47;;;;;;;5.05;0.65;;;7.70;99.90;;;;;;5135654;27;20511;-66
2023/11/06 03:43:13;;;;;;;3.45;0.80;;;7.70;99.90;;;;;;5133610;27;20084;-67
2023/11/06 03:45:38;;;;;;;8.55;0.80;;;7.80;99.90;;;;;;5135453;27;20046;-67
2023/11/06 03:48:04;;;;;;;6.78;1.08;;;7.80;99.90;;;;;;5135524;27;20031;-67
2023/11/06 03:50:30;;;;;;;4.60;0.60;;;7.80;99.90;;;;;;5135617;27;20019;-67
2023/11/06 03:52:55;;;;;;;3.28;0.90;;;7.80;99.90;;;;;;5129010;27;20031;-67
2023/11/06 03:55:21;;;;;;;6.57;0.73;;;7.80;99.90;;;;;;5135959;27;20019;-67
2023/11/06 03:57:46;;;;;;;2.72;1.10;;;7.90;99.90;;;;;;5134479;27;20452;-66
2023/11/06 04:00:12;;;;;;;3.28;0.70;;;8.00;99.90;;;;;;5135881;27;20106;-67
2023/11/06 04:02:38;;;;;;;4.80;0.80;;;8.00;99.90;;;;;;5121676;27;20019;-66
2023/11/06 04:05:05;;;;;;;3.60;0.57;;;8.10;99.90;;;;;;5134122;27;20504;-67
2023/11/06 04:07:30;;;;;;;4.47;0.70;;;8.20;99.90;;;;;;5135629;27;20019;-67
2023/11/06 04:09:56;;;;;;;5.20;0.65;;;8.20;99.90;;;;;;5127409;27;20767;-67
2023/11/06 04:12:22;;;;;;;5.75;0.82;;;8.20;99.90;;;;;;5133104;27;20025;-67
2023/11/06 04:14:48;;;;;;;2.50;0.80;;;8.40;99.90;;;;;;5133355;27;20038;-67
2023/11/06 04:17:14;;;;;;;6.30;0.82;;;8.40;99.90;;;;;;5134850;27;20035;-67
2023/11/06 04:19:40;;;;;;;6.93;1.63;;;8.40;99.90;;;;;;5133989;27;20045;-67
2023/11/06 04:22:06;;;;;;;4.05;0.88;;;8.40;99.90;;;;;;5126042;27;20499;-67
2023/11/06 04:24:31;;;;;;;4.13;0.70;;;8.40;99.90;;;;;;5119900;27;20029;-67
2023/11/06 04:26:57;;;;;;;6.60;1.10;;;8.30;99.90;;;;;;5134459;27;20037;-67
2023/11/06 04:29:22;;;;;;;3.67;0.90;;;8.30;99.90;;;;;;5134575;27;20053;-66
2023/11/06 04:31:48;;;;;;;4.40;0.80;;;8.30;99.90;;;;;;5131712;27;20027;-67
2023/11/06 04:34:13;;;;;;;4.22;0.55;;;8.30;99.90;;;;;;5133392;27;20023;-68
2023/11/06 04:36:39;;;;;;;3.08;0.63;;;8.30;99.90;;;;;;5134550;27;20042;-67
2023/11/06 04:39:05;;;;;;;2.20;0.70;;;8.50;99.90;;;;;;5133813;27;20031;-67
2023/11/06 04:41:31;;;;;;;4.72;0.85;;;8.50;99.90;;;;;;5128984;27;20034;-67
2023/11/06 04:43:56;;;;;;;3.58;0.60;;;8.50;99.90;;;;;;5133639;27;20085;-67
2023/11/06 04:46:23;;;;;;;5.70;0.82;;;8.40;99.90;;;;;;5134841;27;20475;-67
2023/11/06 04:48:48;;;;;;;6.85;1.00;;;8.40;99.90;;;;;;5133308;27;20023;-67
2023/11/06 04:51:17;;;;;;;4.07;1.42;;;8.40;99.90;;;;;;5133790;27;20364;-67
2023/11/06 04:53:42;;;;;;;3.58;0.73;;;8.40;99.90;;;;;;5133457;27;20146;-67
2023/11/06 04:56:08;;;;;;;4.38;0.60;;;8.30;99.90;;;;;;5132879;27;20111;-67
2023/11/06 04:58:33;;;;;;;4.10;0.93;;;8.20;99.90;;;;;;5128407;27;20024;-67
2023/11/06 05:00:59;;;;;;;2.13;0.75;;;8.10;99.90;;;;;;5125632;27;20034;-67
2023/11/06 05:03:25;;;;;;;2.95;0.77;;;8.00;99.90;;;;;;5132501;27;20469;-67
2023/11/06 05:05:50;;;;;;;4.25;0.93;;;7.90;99.90;;;;;;5133708;27;20031;-66
2023/11/06 05:08:16;;;;;;;6.35;0.80;;;7.90;99.90;;;;;;5133923;27;20026;-67
2023/11/06 05:10:41;;;;;;;4.05;0.98;;;7.80;99.90;;;;;;5132366;27;20026;-67
2023/11/06 05:13:07;;;;;;;3.97;0.93;;;7.70;99.90;;;;;;5132550;27;20073;-67
2023/11/06 05:15:32;;;;;;;1.88;0.65;;;7.80;99.90;;;;;;5124154;27;20027;-66
2023/11/06 05:17:58;;;;;;;3.65;0.85;;;7.80;99.90;;;;;;5113304;27;20164;-66
2023/11/06 05:20:24;;;;;;;6.25;0.90;;;7.70;99.90;;;;;;5100075;28;20020;-66
2023/11/06 05:22:50;;;;;;;5.97;0.88;;;7.60;99.90;;;;;;5111050;28;20449;-66
2023/11/06 05:25:16;;;;;;;8.18;0.90;;;7.60;99.90;;;;;;5113357;28;20065;-66
2023/11/06 05:27:42;;;;;;;1.80;0.55;;;7.50;99.90;;;;;;5111900;28;20062;-66
2023/11/06 05:30:09;;;;;;;4.75;1.15;;;7.50;99.90;;;;;;5113532;28;20025;-67
2023/11/06 05:32:35;;;;;;;4.72;0.77;;;7.60;99.90;;;;;;5108273;27;20046;-68
2023/11/06 05:35:00;;;;;;;4.05;0.75;;;7.60;99.90;;;;;;5111178;28;20449;-68
2023/11/06 05:37:27;;;;;;;5.95;0.90;;;7.70;99.90;;;;;;5112749;28;20452;-69
2023/11/06 05:39:53;;;;;;;4.25;0.68;;;7.70;99.90;;;;;;5111898;28;20076;-68
2023/11/06 05:42:19;;;;;;;6.57;1.63;;;7.70;99.90;;;;;;5098705;28;20363;-68
2023/11/06 05:44:44;;;;;;;1.48;0.60;;;7.60;99.90;;;;;;5112074;28;20020;-67
2023/11/06 05:47:10;;;;;;;8.90;0.85;;;7.60;99.90;;;;;;5113043;28;20464;-68
2023/11/06 05:49:42;;;;;;;2.40;0.60;;;7.50;99.90;;;;;;5097647;28;20068;-68
2023/11/06 05:52:08;;;;;;;2.38;0.65;;;7.60;99.90;;;;;;5098939;28;20039;-68
2023/11/06 05:54:34;;;;;;;4.32;1.33;;;7.60;99.90;;;;;;5112667;28;20449;-66
2023/11/06 05:57:00;;;;;;;3.22;0.73;;;7.70;99.90;;;;;;5111059;28;20030;-67
2023/11/06 05:59:25;;;;;;;2.85;0.73;;;7.70;99.90;;;;;;5111532;28;20024;-67
2023/11/06 06:01:51;;;;;;;1.42;0.60;;;7.70;99.90;;;;;;5110103;28;20015;-67
2023/11/06 06:04:16;;;;;;;3.30;0.60;;;7.60;99.90;;;;;;5111686;28;20026;-67
2023/11/06 06:06:42;;;;;;;3.05;0.65;;;7.60;99.90;;;;;;5108674;27;20020;-67
2023/11/06 06:09:08;;;;;;;2.65;0.40;;;7.60;99.90;;;;;;5112019;28;20059;-67
2023/11/06 06:11:37;;;;;;;4.25;0.60;;;7.50;99.90;;;;;;5106092;28;20069;-67
2023/11/06 06:14:04;;;;;;;2.05;0.50;;;7.50;99.90;;;;;;5111513;28;20460;-67
2023/11/06 06:16:30;;;;;;;3.00;0.47;;;7.50;99.90;;;;;;5112104;28;20043;-67
2023/11/06 06:18:56;;;;;;;3.88;1.10;;;7.50;99.90;;;;;;5092781;28;20374;-67
2023/11/06 06:21:22;;;;;;;2.63;0.55;;;7.50;99.90;;;;;;5103295;28;20028;-67
2023/11/06 06:23:47;;;;;;;2.25;0.68;;;7.50;99.90;;;;;;5109354;28;20053;-67
2023/11/06 06:26:13;;;;;;;4.72;0.77;;;7.40;99.90;;;;;;5111919;28;20043;-67
2023/11/06 06:28:38;;;;;;;2.38;0.50;;;7.50;99.90;;;;;;5125764;27;20022;-67
2023/11/06 06:31:04;;;;;;;3.50;0.65;;;7.60;99.90;;;;;;5119993;27;20393;-66
2023/11/06 06:33:30;;;;;;;1.42;0.52;;;7.50;99.90;;;;;;5100036;27;20031;-67
2023/11/06 06:35:55;;;;;;;4.32;0.80;;;7.50;99.90;;;;;;5110473;28;20081;-67
2023/11/06 06:38:21;;;;;;;2.78;0.65;;;7.50;99.90;;;;;;5109921;27;20040;-67
2023/11/06 06:40:50;;;;;;;1.10;0.60;;;7.50;99.90;;;;;;5110414;28;20031;-67
2023/11/06 06:43:18;;;;;;;4.00;0.90;;;7.60;99.90;;;;;;5111597;28;20024;-67
2023/11/06 06:45:45;;;;;;;4.90;0.90;;;7.50;99.90;;;;;;5110481;28;20019;-66
2023/11/06 06:48:10;;;;;;;1.27;0.80;;;7.50;99.90;;;;;;5111378;28;20031;-66
2023/11/06 06:50:36;;;;;;;4.47;0.82;;;7.50;99.90;;;;;;5107786;28;20020;-67
2023/11/06 06:53:01;;;;;;;5.78;0.75;;;7.50;99.90;;;;;;5120273;28;20024;-67
2023/11/06 06:55:27;;;;;;;2.35;0.68;;;7.60;99.90;;;;;;5117049;27;20491;-65
2023/11/06 06:57:56;;;;;;;1.70;0.45;;;7.60;99.90;;;;;;5114827;28;20031;-67
2023/11/06 07:00:22;;;;;;;5.10;0.70;;;7.70;99.90;;;;;;5114835;28;20047;-67
2023/11/06 07:02:48;;;;;;;1.90;0.60;;;7.70;99.90;;;;;;5114010;28;20027;-68
2023/11/06 07:05:13;;;;;;;1.90;0.47;;;7.80;99.90;;;;;;5124716;27;20033;-72
2023/11/06 07:07:39;;;;;;;0.93;0.30;;;7.70;99.90;;;;;;5126322;27;20067;-66
2023/11/06 07:10:05;;;;;;;3.20;0.60;;;7.80;99.90;;;;;;5114369;28;20099;-68
2023/11/06 07:12:30;;;;;;;2.35;0.43;;;7.70;99.90;;;;;;5110825;28;20455;-68
2023/11/06 07:14:56;;;;;;;3.38;0.60;;;7.80;99.90;;;;;;5123603;27;20023;-68
2023/11/06 07:17:21;;;;;;;4.13;1.23;;;7.70;99.90;;;;;;5133783;27;20051;-68
2023/11/06 07:19:47;;;;;;;7.47;0.65;;;7.70;99.90;;;;;;5113685;28;20044;-67
2023/11/06 07:22:13;;;;;;;0.70;0.25;;;7.70;99.90;;;;;;5115631;28;20095;-67
2023/11/06 07:24:39;;;;;;;2.42;0.50;;;7.60;99.90;;;;;;5112253;28;20016;-67
2023/11/06 07:27:04;;;;;;;5.10;0.70;;;7.60;99.90;;;;;;5106584;28;20020;-68
2023/11/06 07:29:30;;;;;;;3.63;1.00;;;7.50;99.90;;;;;;5107580;28;20464;-68
2023/11/06 07:31:56;;;;;;;3.35;0.80;;;7.60;99.90;;;;;;5108070;28;20035;-67
2023/11/06 07:34:21;;;;;;;4.53;0.60;;;7.70;99.90;;;;;;5112980;28;20023;-67
2023/11/06 07:36:48;;;;;;;1.52;0.50;;;7.80;99.90;;;;;;5114313;28;20034;-67
2023/11/06 07:39:15;;;;;;;2.03;0.82;;;7.90;99.90;;;;;;5109546;28;20495;-67
2023/11/06 07:41:42;;;;;;;4.13;0.80;;;8.00;99.90;;;;;;5112773;28;20035;-67
2023/11/06 07:44:08;;;;;;;7.47;0.82;;;8.20;99.90;;;;;;5100930;28;20024;-67
2023/11/06 07:46:34;;;;;;;2.92;0.68;;;8.30;99.90;;;;;;5108568;28;20024;-67
2023/11/06 07:48:59;;;;;;;4.95;0.73;;;8.50;99.90;;;;;;5112886;28;20102;-67
2023/11/06 07:51:25;;;;;;;3.38;0.90;;;8.70;99.90;;;;;;5120735;27;20106;-68
2023/11/06 07:53:50;;;;;;;3.67;0.80;;;8.90;99.90;;;;;;5101997;28;20024;-67
2023/11/06 07:56:18;;;;;;;1.40;0.35;;;9.00;99.90;;;;;;5106570;27;20015;-67
2023/11/06 07:58:44;;;;;;;3.47;0.57;;;9.00;99.90;;;;;;5111334;28;20119;-67
2023/11/06 08:01:10;;;;;;;3.28;0.95;;;9.20;99.90;;;;;;5103141;28;20098;-67
2023/11/06 08:03:36;;;;;;;4.07;1.02;;;9.20;99.90;;;;;;5100011;28;20420;-67
2023/11/06 08:06:02;;;;;;;6.82;0.90;;;9.30;99.90;;;;;;5108852;28;20011;-67
2023/11/06 08:08:28;;;;;;;2.83;0.95;;;9.40;99.90;;;;;;5111276;28;20528;-67
2023/11/06 08:10:53;;;;;;;2.28;0.52;;;9.50;99.90;;;;;;5110964;28;20024;-67
2023/11/06 08:13:19;;;;;;;2.70;0.90;;;9.50;99.90;;;;;;5111850;28;20012;-67
2023/11/06 08:15:44;;;;;;;3.40;0.75;;;9.60;99.90;;;;;;5105120;27;20419;-67
2023/11/06 08:18:10;;;;;;;5.10;1.05;;;9.70;99.90;;;;;;5106684;27;20038;-67
2023/11/06 08:20:36;;;;;;;4.28;1.10;;;9.70;99.90;;;;;;5112746;28;20030;-67
2023/11/06 08:23:02;;;;;;;4.97;0.68;;;9.70;99.90;;;;;;5112129;28;20030;-67
2023/11/06 08:25:28;;;;;;;2.33;0.65;;;9.90;99.90;;;;;;5112532;28;20015;-67
2023/11/06 08:27:53;;;;;;;5.40;0.75;;;9.90;99.90;;;;;;5103661;28;20475;-67
2023/11/06 08:30:19;;;;;;;4.85;0.90;;;10.10;99.90;;;;;;5112926;28;20023;-67
2023/11/06 08:32:44;;;;;;;3.15;0.65;;;10.10;99.90;;;;;;5107627;28;20027;-67
2023/11/06 08:35:10;;;;;;;2.25;0.80;;;10.20;99.90;;;;;;5112489;28;20023;-67
2023/11/06 08:37:36;;;;;;;3.55;0.70;;;10.40;99.90;;;;;;5113413;28;20020;-67
2023/11/06 08:40:03;;;;;;;5.63;0.90;;;10.40;99.90;;;;;;5111709;28;20023;-66
2023/11/06 08:42:29;;;;;;;2.60;0.68;;;10.50;99.90;;;;;;5112308;28;20028;-67
2023/11/06 08:44:54;;;;;;;3.15;0.90;;;10.60;99.90;;;;;;5109520;28;20801;-67
2023/11/06 08:47:20;;;;;;;4.80;0.90;;;10.70;99.90;;;;;;5114281;27;20023;-67
2023/11/06 08:49:46;;;;;;;5.78;0.85;;;10.70;99.90;;;;;;5112036;28;20437;-66
2023/11/06 08:52:12;;;;;;;1.98;0.82;;;10.80;99.90;;;;;;5112851;28;20067;-66
2023/11/06 08:54:39;;;;;;;6.68;0.60;;;10.90;99.90;;;;;;5112616;28;20444;-66
2023/11/06 08:57:05;;;;;;;4.07;0.60;;;11.00;99.90;;;;;;5112391;28;20016;-67
2023/11/06 08:59:30;;;;;;;2.33;0.47;;;11.10;99.90;;;;;;5111399;28;20361;-67
2023/11/06 09:01:56;;;;;;;2.72;0.63;;;11.10;99.90;;;;;;5112461;28;20754;-67
2023/11/06 09:04:22;;;;;;;3.08;0.63;;;11.10;99.90;;;;;;5112434;28;20027;-66
2023/11/06 09:06:47;;;;;;;3.35;0.60;;;11.00;99.90;;;;;;5112016;28;20050;-66
2023/11/06 09:09:13;;;;;;;1.90;0.57;;;10.90;99.90;;;;;;5111525;27;20184;-67
2023/11/06 09:11:41;;;;;;;2.85;0.57;;;10.90;99.90;;;;;;5116183;27;20449;-66
2023/11/06 09:14:10;;;;;;;5.85;0.98;;;10.90;99.90;;;;;;5112347;28;20043;-66
2023/11/06 09:16:37;;;;;;;4.95;0.60;;;10.90;99.90;;;;;;5123085;27;20051;-67
2023/11/06 09:19:07;;;;;;;3.60;0.65;;;11.00;99.90;;;;;;5130829;27;20041;-66
2023/11/06 09:21:33;;;;;;;2.28;0.63;;;11.20;99.90;;;;;;5133270;27;20022;-66
2023/11/06 09:23:59;;;;;;;4.85;0.70;;;11.40;99.90;;;;;;5129425;27;20601;-66
2023/11/06 09:26:25;;;;;;;3.38;0.50;;;11.50;99.90;;;;;;5132774;27;20110;-67
2023/11/06 09:28:52;;;;;;;3.45;0.60;;;11.60;99.90;;;;;;5142577;27;20027;-66
2023/11/06 09:31:20;;;;;;;4.25;1.00;;;11.80;99.90;;;;;;5117531;27;20111;-66
2023/11/06 09:33:47;;;;;;;2.17;0.50;;;11.70;99.90;;;;;;5133767;27;20027;-67
2023/11/06 09:36:12;;;;;;;3.08;0.90;;;11.80;99.90;;;;;;5141389;27;20621;-67
2023/11/06 09:38:38;;;;;;;2.22;0.60;;;11.80;99.90;;;;;;5132089;27;20081;-66
2023/11/06 09:41:04;;;;;;;3.38;0.65;;;11.80;99.90;;;;;;5131890;27;20106;-66
2023/11/06 09:43:30;;;;;;;5.45;1.10;;;11.80;99.90;;;;;;5132981;27;20067;-66
2023/11/06 09:45:56;;;;;;;2.78;0.82;;;11.90;99.90;;;;;;5131971;27;20023;-66
2023/11/06 09:48:29;;;;;;;5.47;0.70;;;11.90;99.90;;;;;;5130401;27;20042;-67
2023/11/06 09:50:58;;;;;;;4.30;0.70;;;11.80;99.90;;;;;;5131483;27;20076;-66
2023/11/06 09:53:24;;;;;;;3.40;0.77;;;11.90;99.90;;;;;;5131713;27;20027;-66
2023/11/06 09:55:52;;;;;;;1.23;0.30;;;11.90;99.90;;;;;;5122953;27;20029;-66
2023/11/06 09:58:18;;;;;;;7.50;1.08;;;12.00;99.90;;;;;;5129814;27;20035;-66
2023/11/06 10:00:46;;;;;;;2.50;0.60;;;12.00;99.90;;;;;;5131940;27;20030;-66
2023/11/06 10:03:14;;;;;;;3.13;0.68;;;12.10;99.90;;;;;;5131829;27;20023;-65
2023/11/06 10:05:39;;;;;;;4.68;0.70;;;12.20;99.90;;;;;;5128095;27;20447;-65
2023/11/06 10:08:06;;;;;;;2.58;0.85;;;12.30;99.90;;;;;;5129884;27;20030;-65
2023/11/06 10:10:34;;;;;;;3.30;0.50;;;12.30;99.90;;;;;;5132716;27;20023;-66
2023/11/06 10:13:04;;;;;;;2.83;0.60;;;12.40;99.90;;;;;;5113619;27;20471;-66
2023/11/06 10:15:39;;;;;;;2.47;0.68;;;12.50;99.90;;;;;;5125362;27;20023;-65
2023/11/06 10:18:13;;;;;;;4.25;0.55;;;12.50;99.90;;;;;;5123668;27;20031;-65
2023/11/06 10:20:42;;;;;;;2.88;0.88;;;12.50;99.90;;;;;;5131099;27;20110;-66
2023/11/06 10:23:07;;;;;;;1.60;0.50;;;12.60;99.90;;;;;;5131550;27;20507;-66
2023/11/06 10:25:33;;;;;;;3.33;0.77;;;12.70;99.90;;;;;;5119637;27;20024;-66
2023/11/06 10:27:59;;;;;;;3.47;0.32;;;12.70;99.90;;;;;;5118211;27;20783;-66
2023/11/06 10:30:27;;;;;;;2.75;0.68;;;12.80;99.90;;;;;;5129080;27;20019;-66
2023/11/06 10:32:53;;;;;;;2.13;0.60;;;12.80;99.90;;;;;;5120809;27;20459;-66
2023/11/06 10:35:18;;;;;;;1.70;0.70;;;12.80;99.90;;;;;;5131693;27;20013;-65
2023/11/06 10:37:46;;;;;;;2.40;0.40;;;12.70;99.90;;;;;;5099922;28;20525;-66
2023/11/06 10:40:13;;;;;;;2.10;0.55;;;12.70;99.90;;;;;;5125472;27;20805;-66
2023/11/06 10:42:43;;;;;;;3.05;0.63;;;12.60;99.90;;;;;;5127012;27;20087;-66
2023/11/06 10:45:13;;;;;;;4.03;0.40;;;12.50;99.90;;;;;;5131495;28;20027;-66
2023/11/06 10:47:42;;;;;;;3.35;0.90;;;12.50;99.90;;;;;;5116880;28;20031;-65
2023/11/06 10:50:13;;;;;;;2.92;0.98;;;12.60;99.90;;;;;;5131968;28;20027;-66
2023/11/06 10:52:39;;;;;;;1.55;0.40;;;12.80;99.90;;;;;;5127916;28;20084;-68
2023/11/06 10:55:07;;;;;;;4.20;0.63;;;13.00;99.90;;;;;;5131476;28;20023;-68
2023/11/06 10:57:33;;;;;;;4.30;0.88;;;13.30;99.90;;;;;;5124700;28;20027;-68
2023/11/06 11:00:18;;;;;;;2.40;0.80;;;13.60;99.90;;;;;;5130403;28;20024;-68
2023/11/06 11:02:52;;;;;;;2.60;0.47;;;13.90;99.90;;;;;;5106199;28;20015;-68
2023/11/06 11:05:18;;;;;;;2.45;0.52;;;14.00;99.90;;;;;;5117051;28;20023;-65
2023/11/06 11:07:48;;;;;;;1.83;0.40;;;14.10;99.90;;;;;;5128292;28;20054;-65
2023/11/06 11:10:18;;;;;;;2.85;0.60;;;14.10;99.90;;;;;;5128170;28;20463;-66
2023/11/06 11:12:55;;;;;;;3.53;1.73;;;14.00;99.90;;;;;;5125477;28;20112;-66
2023/11/06 11:15:31;;;;;;;2.00;0.50;;;14.00;99.90;;;;;;5121048;28;20031;-66
2023/11/06 11:18:04;;;;;;;3.40;0.60;;;14.00;99.90;;;;;;5126611;28;20039;-64
2023/11/06 11:20:49;;;;;;;5.10;0.55;;;14.00;99.90;;;;;;5123993;28;20023;-66
2023/11/06 11:23:15;;;;;;;1.20;0.30;;;14.00;99.90;;;;;;5120324;28;20065;-64
2023/11/06 11:26:04;;;;;;;1.13;0.63;;;13.90;99.90;;;;;;5130189;28;20100;-65
2023/11/06 11:28:57;;;;;;;3.22;0.55;;;13.90;99.90;;;;;;5124703;28;20348;-67
2023/11/06 11:31:47;;;;;;;1.50;0.40;;;13.80;99.90;;;;;;5119146;28;20371;-66
2023/11/06 11:34:26;;;;;;;;;;;13.80;99.90;;;;;;5131498;28;20099;-66
2023/11/06 11:36:53;;;;;;;0.88;0.40;;;13.70;99.90;;;;;;5120242;28;19962;-67
2023/11/06 11:39:22;;;;;;;1.95;0.60;;;13.80;99.90;;;;;;5122886;28;20133;-69
2023/11/06 11:42:06;;;;;;;2.00;0.68;;;13.80;99.90;;;;;;5133299;27;20024;-67
2023/11/06 11:44:32;;;;;;;1.45;0.30;;;14.00;99.90;;;;;;5134904;27;20020;-67
2023/11/06 11:47:00;;;;;;;2.08;0.40;;;14.30;99.90;;;;;;5123347;27;20708;-67
2023/11/06 11:49:48;;;;;;;1.92;0.95;;;14.50;99.90;;;;;;5134062;27;20038;-67
2023/11/06 11:52:19;;;;;;;1.27;0.80;;;;;;;;;;5126669;27;20476;-67
2023/11/06 11:54:45;;;;;;;3.55;0.55;;;15.00;99.90;;;;;;5133637;27;20055;-67
2023/11/06 11:57:11;;;;;;;1.38;0.82;;;15.20;99.90;;;;;;5124592;27;20034;-67
2023/11/06 11:59:46;;;;;;;1.83;0.80;;;15.30;99.90;;;;;;5128222;27;20031;-67
2023/11/06 12:02:23;;;;;;;2.13;0.60;;;15.40;99.90;;;;;;5133770;27;20448;-67
2023/11/06 12:04:48;;;;;;;2.42;0.80;;;15.30;99.90;;;;;;5131610;27;20015;-67
2023/11/06 12:07:16;;;;;;;0.75;0.43;;;15.30;99.90;;;;;;5111904;27;20474;-67
2023/11/06 12:09:50;;;;;;;3.63;0.70;;;15.20;99.90;;;;;;5117427;27;20030;-67
2023/11/06 12:12:27;;;;;;;3.67;0.68;;;15.30;99.90;;;;;;5125538;27;20030;-67
2023/11/06 12:14:54;;;;;;;2.25;0.35;;;15.30;99.90;;;;;;5133264;27;20030;-67
2023/11/06 12:17:34;;;;;;;2.25;0.50;;;15.20;99.90;;;;;;5125015;27;20476;-67
2023/11/06 12:20:01;;;;;;;4.37;1.10;;;15.20;99.90;;;;;;5133494;27;20031;-76
2023/11/06 12:22:28;;;;;;;0.38;0.20;;;15.10;99.90;;;;;;5122225;27;20057;-68
2023/11/06 12:24:55;;;;;;;3.10;0.40;;;15.00;99.90;;;;;;5128555;27;20023;-67
2023/11/06 12:27:31;;;;;;;1.92;0.40;;;14.90;99.90;;;;;;5127020;27;20019;-67
2023/11/06 12:30:06;;;;;;;1.05;0.65;;;14.80;99.90;;;;;;5114705;27;20068;-66
2023/11/06 12:32:34;;;;;;;0.85;0.30;;;14.80;99.90;;;;;;5126521;27;20028;-66
2023/11/06 12:35:14;;;;;;;1.85;0.40;;;14.70;99.90;;;;;;5124899;27;20186;-67
2023/11/06 12:37:53;;;;;;;3.33;0.30;;;14.70;99.90;;;;;;5128503;27;20366;-66
2023/11/06 12:40:27;;;;;;;2.97;0.38;;;14.60;99.90;;;;;;5109848;27;20034;-67
2023/11/06 12:42:54;;;;;;;2.15;0.50;;;14.50;99.90;;;;;;5128517;27;20042;-67
2023/11/06 12:45:26;;;;;;;1.58;0.30;;;14.40;99.90;;;;;;5132988;27;20019;-67
2023/11/06 12:47:55;;;;;;;1.42;0.50;;;14.40;99.90;;;;;;5132189;27;20490;-67
2023/11/06 12:50:21;;;;;;;1.98;0.40;;;14.30;99.90;;;;;;5133874;27;20026;-66
2023/11/06 12:52:47;;;;;;;2.13;0.70;;;14.20;99.90;;;;;;5128739;27;20027;-67
2023/11/06 12:55:14;;;;;;;1.58;0.25;;;14.20;99.90;;;;;;5122352;27;20041;-69